Latest Weather Observations for Butlers Gorge

IDT60801

Issued at 5:05 am EDT Friday 28 November 2014 (issued every 30 minutes, with the page automatically refreshed every 10 minutes)

About weather observations | Map of weather stations | Latest weather observations for TAS | Other Formats
Station Details ID: 096003 Name: BUTLERS GORGE Lat: -42.28 Lon: 146.28 Height: 667.0 m
Data from the previous 72 hours. | See also: Recent months at Butlers Gorge
Date/Time
EDT
Temp
°C
App
Temp
°C
Dew
Point
Rel
Hum
%
Delta-T
°C
Wind Press
QNH
hPa
Press
MSL
hPa
Rain
since 9 am
mm
Dir
 
Spd
km/h
Gust
km/h
Spd
kts
Gust
kts
28/05:00am 3.6 2.1 3.0 96 0.3 CALM 0 0 0 0 - - 0.0
28/04:30am 3.4 1.9 2.8 96 0.3 CALM 0 0 0 0 - - 0.0
28/04:00am 2.8 1.2 2.2 96 0.2 CALM 0 0 0 0 - - 0.0
28/03:30am 2.5 0.8 1.9 96 0.2 CALM 0 0 0 0 - - 0.0
28/03:00am 1.9 -0.3 1.3 96 0.2 S 2 6 1 3 - - 0.0
28/02:30am 2.1 0.3 1.5 96 0.2 CALM 0 0 0 0 - - 0.0
28/02:00am 1.2 -0.7 0.6 96 0.2 CALM 0 0 0 0 - - 0.0
28/01:30am 0.3 -1.7 -0.4 95 0.3 CALM 0 0 0 0 - - 0.0
28/01:00am 0.5 -2.3 -0.2 95 0.3 WSW 4 7 2 4 - - 0.0
28/12:30am 0.4 -1.6 -0.3 95 0.3 CALM 0 0 0 0 - - 0.0
28/12:00am 1.2 -0.7 0.5 95 0.3 CALM 0 0 0 0 - - 0.0
 
Date/Time
EDT
Temp
°C
App
Temp
°C
Dew
Point
Rel
Hum
%
Delta-T
°C
Wind Press
QNH
hPa
Press
MSL
hPa
Rain
since 9 am
mm
Dir
 
Spd
km/h
Gust
km/h
Spd
kts
Gust
kts
27/11:30pm 1.9 0.1 1.0 94 0.4 CALM 0 0 0 0 - - 0.0
27/11:00pm 2.1 0.3 1.1 93 0.4 CALM 0 0 0 0 - - 0.0
27/10:30pm 3.0 1.3 2.0 93 0.4 CALM 0 0 0 0 - - 0.0
27/10:00pm 3.4 1.7 1.9 90 0.6 CALM 0 0 0 0 - - 0.0
27/09:30pm 4.5 3.0 3.0 90 0.6 CALM 0 0 0 0 - - 0.0
27/09:00pm 5.6 4.2 3.3 85 1.0 CALM 0 0 0 0 - - 0.0
27/08:30pm 7.3 6.0 4.1 80 1.4 CALM 0 0 0 0 - - 0.0
27/08:00pm 9.6 7.9 4.0 68 2.6 WSW 2 7 1 4 - - 0.0
27/07:30pm 11.8 9.0 3.3 56 3.9 SW 7 9 4 5 - - 0.0
27/07:00pm 12.0 8.5 3.5 56 3.9 SW 11 17 6 9 - - 0.0
27/06:30pm 12.4 9.2 3.1 53 4.3 SW 9 20 5 11 - - 0.0
27/06:00pm 13.2 10.7 3.6 52 4.5 W 6 9 3 5 - - 0.0
27/05:30pm 13.0 9.8 2.8 50 4.7 SSW 9 17 5 9 - - 0.0
27/05:00pm 13.1 9.1 2.9 50 4.7 WSW 13 20 7 11 - - 0.0
27/04:30pm 13.4 9.5 3.2 50 4.7 WSW 13 22 7 12 - - 0.0
27/04:00pm 13.7 9.9 4.0 52 4.6 WSW 13 20 7 11 - - 0.0
27/03:30pm 13.1 9.2 3.2 51 4.6 WSW 13 28 7 15 - - 0.0
27/03:00pm 13.0 8.9 2.5 49 4.8 WSW 13 24 7 13 - - 0.0
27/02:30pm 12.7 8.0 3.1 52 4.4 WSW 17 26 9 14 - - 0.0
27/02:00pm 11.9 6.5 2.6 53 4.2 W 20 32 11 17 - - 0.0
27/01:30pm 11.2 6.7 2.0 53 4.1 WSW 15 28 8 15 - - 0.0
27/01:00pm 11.0 6.6 2.6 56 3.8 WSW 15 26 8 14 - - 0.0
27/12:30pm 10.7 6.3 2.8 58 3.6 SW 15 33 8 18 - - 0.0
27/12:00pm 10.0 5.7 3.1 62 3.1 W 15 24 8 13 - - 0.0
27/11:30am 9.3 5.1 1.9 60 3.2 WSW 13 28 7 15 - - 0.0
27/11:00am 9.4 5.9 3.4 66 2.7 NW 11 20 6 11 - - 0.0
27/10:30am 7.6 3.1 2.3 69 2.3 WNW 15 30 8 16 - - 0.0
27/10:00am 7.7 4.0 2.4 69 2.3 NW 11 19 6 10 - - 0.0
27/09:30am 7.2 3.0 1.5 67 2.4 NW 13 24 7 13 - - 0.0
27/09:00am 6.5 2.6 1.2 69 2.2 W 11 19 6 10 - - 1.2
27/08:30am 6.3 2.9 1.6 72 2.0 SW 9 17 5 9 - - 1.2
27/08:00am 5.6 1.8 1.7 76 1.6 NNW 11 20 6 11 - - 1.2
27/07:30am 5.3 1.1 1.4 76 1.6 WSW 13 20 7 11 - - 1.2
27/07:00am 5.2 1.2 0.6 72 1.9 W 11 19 6 10 - - 1.2
27/06:30am 5.2 1.2 0.6 72 1.9 W 11 22 6 12 - - 1.2
27/06:00am 4.9 1.8 1.2 77 1.5 W 7 15 4 8 - - 1.2
27/05:30am 5.0 1.2 1.5 78 1.4 W 11 20 6 11 - - 1.2
27/05:00am 5.1 1.2 0.9 74 1.7 WNW 11 20 6 11 - - 1.2
27/04:30am 4.8 1.6 0.8 75 1.6 NW 7 13 4 7 - - 1.2
27/04:00am 4.8 1.7 1.3 78 1.4 NNW 7 11 4 6 - - 1.2
27/03:30am 4.6 1.6 2.3 85 1.0 NNW 7 11 4 6 - - 1.2
27/03:00am 5.0 0.9 2.4 83 1.1 WSW 13 19 7 10 - - 1.2
27/02:30am 5.1 2.0 1.2 76 1.6 W 7 9 4 5 - - 1.2
27/02:00am 5.0 1.9 1.5 78 1.4 WNW 7 15 4 8 - - 1.2
27/01:30am 5.1 1.7 1.9 80 1.3 W 9 17 5 9 - - 1.2
27/01:00am 5.2 2.2 1.9 79 1.4 WSW 7 15 4 8 - - 1.2
27/12:30am 5.2 1.0 1.7 78 1.5 WSW 13 30 7 16 - - 1.2
27/12:00am 4.9 1.8 1.6 79 1.4 N 7 13 4 7 - - 1.2
 
Date/Time
EDT
Temp
°C
App
Temp
°C
Dew
Point
Rel
Hum
%
Delta-T
°C
Wind Press
QNH
hPa
Press
MSL
hPa
Rain
since 9 am
mm
Dir
 
Spd
km/h
Gust
km/h
Spd
kts
Gust
kts
26/11:30pm 5.2 2.2 2.0 80 1.3 W 7 13 4 7 - - 1.2
26/11:00pm 5.0 2.1 2.7 85 1.0 W 7 13 4 7 - - 1.2
26/10:30pm 5.5 2.4 1.1 73 1.8 SW 7 13 4 7 - - 1.2
26/10:00pm 5.4 1.4 0.8 72 1.9 WSW 11 24 6 13 - - 1.2
26/09:30pm 5.8 2.0 1.7 75 1.7 WSW 11 19 6 10 - - 1.2
26/09:00pm 6.1 2.3 1.6 73 1.9 WSW 11 19 6 10 - - 1.2
26/08:30pm 6.3 3.0 2.2 75 1.7 SW 9 17 5 9 - - 1.2
26/08:00pm 6.7 2.9 2.0 72 2.0 WSW 11 22 6 12 - - 1.2
26/07:30pm 6.8 2.7 2.3 73 1.9 WSW 13 28 7 15 - - 1.2
26/07:00pm 7.4 3.9 3.5 76 1.7 WSW 11 22 6 12 - - 1.2
26/06:30pm 7.6 3.5 2.3 69 2.3 SW 13 26 7 14 - - 1.2
26/06:00pm 8.0 3.9 2.5 68 2.4 SW 13 24 7 13 - - 1.2
26/05:30pm 8.5 4.5 2.9 68 2.5 W 13 24 7 13 - - 1.2
26/05:00pm 8.5 4.5 3.1 69 2.4 W 13 26 7 14 - - 1.2
26/04:30pm 8.0 4.5 3.3 72 2.1 SW 11 20 6 11 - - 1.2
26/04:00pm 8.2 5.7 3.5 72 2.1 NNW 6 - 3 - - - 1.2
26/03:30pm 7.6 2.0 3.6 76 1.8 SW 22 41 12 22 - - 1.2
26/03:00pm 9.8 3.7 2.9 62 3.1 WSW 24 46 13 25 - - 1.2
26/02:30pm 8.8 3.8 4.6 75 1.9 WSW 20 37 11 20 - - 1.2
26/02:00pm 7.4 2.9 4.4 81 1.4 SW 17 32 9 17 - - 1.2
26/01:30pm 9.3 4.7 3.7 68 2.5 WSW 17 28 9 15 - - 1.0
26/01:00pm 7.3 2.8 4.4 82 1.3 WSW 17 28 9 15 - - 0.8
26/12:30pm 8.7 4.4 3.1 68 2.5 SW 15 30 8 16 - - 0.6
26/12:00pm 7.5 3.7 3.7 77 1.7 W 13 35 7 19 - - 0.6
26/11:30am 7.0 3.6 4.1 82 1.3 WSW 11 20 6 11 - - 0.6
26/11:00am 7.8 4.3 3.3 73 2.0 WNW 11 26 6 14 - - 0.4
26/10:30am 6.5 2.2 3.5 81 1.3 W 15 33 8 18 - - 0.4
26/10:00am 7.0 4.0 4.3 83 1.2 WNW 9 15 5 8 - - 0.0
26/09:30am 6.5 2.9 2.9 78 1.6 W 11 24 6 13 - - 0.0
26/09:00am 5.8 1.7 2.4 79 1.4 W 13 26 7 14 - - 7.6
26/08:30am 5.8 2.7 3.5 85 1.0 W 9 17 5 9 - - 7.6
26/08:00am 5.8 2.1 2.3 78 1.5 WNW 11 20 6 11 - - 7.6
26/07:30am 5.5 1.8 2.5 81 1.3 WSW 11 19 6 10 - - 7.6
26/07:00am 6.3 3.1 3.3 81 1.3 NW 9 17 5 9 - - 7.4
26/06:30am 5.9 2.5 2.0 76 1.6 SW 9 17 5 9 - - 7.4
26/06:00am 6.0 2.6 1.7 74 1.8 WSW 9 20 5 11 - - 7.4
26/05:30am 5.8 2.3 3.3 84 1.1 SSW 11 20 6 11 - - 7.4
26/05:00am 6.3 2.9 4.1 86 1.0 SSW 11 24 6 13 - - 7.4
26/04:30am 6.6 3.3 4.6 87 0.9 W 11 30 6 16 - - 7.2
26/04:00am 7.0 2.0 4.8 86 1.0 W 20 37 11 20 - - 7.0
26/03:30am 7.5 3.3 5.6 88 0.9 WSW 17 30 9 16 - - 6.8
26/03:00am 7.8 3.2 5.8 87 0.9 W 19 52 10 28 - - 6.4
26/02:30am 7.9 3.7 5.5 85 1.1 WSW 17 35 9 19 - - 5.6
26/02:00am 7.9 5.3 5.9 87 0.9 WSW 9 19 5 10 - - 5.4
26/01:30am 7.9 3.1 5.7 86 1.0 WNW 20 35 11 19 - - 5.0
26/01:25am 7.9 1.6 5.5 85 1.1 W 28 39 15 21 - - 5.0
26/01:00am 7.5 4.8 5.8 89 0.8 SW 9 17 5 9 - - 4.6
26/12:30am 7.5 2.7 5.6 88 0.9 W 20 35 11 19 - - 4.4
26/12:00am 7.4 4.2 5.2 86 1.0 W 11 28 6 15 - - 4.0
 
Date/Time
EDT
Temp
°C
App
Temp
°C
Dew
Point
Rel
Hum
%
Delta-T
°C
Wind Press
QNH
hPa
Press
MSL
hPa
Rain
since 9 am
mm
Dir
 
Spd
km/h
Gust
km/h
Spd
kts
Gust
kts
25/11:30pm 7.3 2.9 4.9 85 1.1 NW 17 32 9 17 - - 4.0
25/11:00pm 7.0 3.0 4.8 86 1.0 NNW 15 30 8 16 - - 4.0
25/10:30pm 6.9 3.2 4.6 85 1.0 NW 13 28 7 15 - - 3.8
25/10:00pm 6.7 3.4 4.7 87 0.9 WNW 11 20 6 11 - - 3.8
25/09:30pm 6.4 3.0 3.9 84 1.1 N 11 17 6 9 - - 3.8
25/09:00pm 6.5 3.4 3.5 81 1.3 NW 9 17 5 9 - - 3.8
25/08:30pm 6.4 2.1 3.4 81 1.3 WNW 15 24 8 13 - - 3.8
25/08:00pm 6.4 2.9 3.4 81 1.3 W 11 26 6 14 - - 3.8
25/07:30pm 6.2 2.4 3.7 84 1.1 WNW 13 22 7 12 - - 3.8
25/07:00pm 6.4 2.4 2.9 78 1.5 W 13 22 7 12 - - 3.8
25/06:30pm 6.2 1.4 2.7 78 1.5 W 17 32 9 17 - - 3.8
25/06:00pm 6.5 3.5 4.2 85 1.0 W 9 17 5 9 - - 3.8
25/05:30pm 6.4 2.6 3.7 83 1.2 W 13 28 7 15 - - 3.6
25/05:00pm 6.8 3.0 4.1 83 1.2 W 13 28 7 15 - - 3.2
25/04:30pm 7.0 3.5 3.6 79 1.5 W 11 20 6 11 - - 2.8
25/04:00pm 6.8 2.2 3.9 82 1.3 W 17 35 9 19 - - 2.6
25/03:30pm 7.6 3.6 4.9 83 1.2 WSW 15 24 8 13 - - 2.4
25/03:00pm 7.7 4.0 4.7 81 1.4 WNW 13 28 7 15 - - 2.0
25/02:30pm 7.6 4.0 5.2 85 1.1 W 13 32 7 17 - - 1.8
25/02:00pm 8.3 4.1 5.9 85 1.1 WNW 17 30 9 16 - - 0.8
25/01:30pm 8.5 5.0 5.4 81 1.5 W 13 22 7 12 - - 0.4
25/01:00pm 9.1 4.6 4.1 71 2.3 WSW 17 24 9 13 - - 0.4
25/12:30pm 8.9 5.2 4.7 75 1.9 WNW 13 30 7 16 - - 0.4
25/12:00pm 9.1 5.9 5.1 76 1.9 W 11 24 6 13 - - 0.4
25/11:30am 7.9 4.2 4.3 78 1.6 W 13 32 7 17 - - 0.4
25/11:00am 7.3 3.6 4.4 82 1.3 WSW 13 28 7 15 - - 0.4
25/10:30am 7.3 4.0 4.6 83 1.2 W 11 20 6 11 - - 0.4
25/10:00am 7.4 3.7 4.7 83 1.2 W 13 22 7 12 - - 0.2
25/09:30am 6.5 2.7 3.7 82 1.2 WSW 13 35 7 19 - - 0.2
25/09:00am 6.8 3.5 4.3 84 1.1 WSW 11 22 6 12 - - 16.0
25/08:30am 7.2 3.7 3.6 78 1.6 W 11 26 6 14 - - 15.8
25/08:00am 5.6 1.7 3.3 85 1.0 W 13 26 7 14 - - 15.8
25/07:30am 6.4 2.0 2.5 76 1.7 W 15 26 8 14 - - 15.0
25/07:00am 7.0 3.9 1.3 67 2.4 NNE 7 24 4 13 - - 15.0
25/06:30am 6.1 2.8 2.6 78 1.5 W 9 26 5 14 - - 14.8
25/06:00am 5.3 2.2 3.6 89 0.7 W 9 20 5 11 - - 14.6
25/05:30am 5.2 2.1 3.4 88 0.8 W 9 24 5 13 - - 13.6

Other Formats:

Comma delimited format used in spreadsheet applications
http://www.bom.gov.au/fwo/IDT60801/IDT60801.94959.axf

JavaScript Object Notation format (JSON) in row-major order
http://www.bom.gov.au/fwo/IDT60801/IDT60801.94959.json